sensor_id;sensor_type;location;lat;lon;timestamp;P1;durP1;ratioP1;P2;durP2;ratioP2
15155;SDS011;7678;50.058;8.306;2022-12-07T00:01:43;26.33;;;17.83;;
15155;SDS011;7678;50.058;8.306;2022-12-07T00:04:15;29.53;;;19.00;;
15155;SDS011;7678;50.058;8.306;2022-12-07T00:06:51;28.23;;;20.63;;
15155;SDS011;7678;50.058;8.306;2022-12-07T00:09:19;26.10;;;19.80;;
15155;SDS011;7678;50.058;8.306;2022-12-07T00:11:48;31.20;;;20.57;;
15155;SDS011;7678;50.058;8.306;2022-12-07T00:14:19;27.30;;;19.33;;
15155;SDS011;7678;50.058;8.306;2022-12-07T00:16:48;30.47;;;21.40;;
15155;SDS011;7678;50.058;8.306;2022-12-07T00:19:17;26.70;;;18.63;;
15155;SDS011;7678;50.058;8.306;2022-12-07T00:21:47;26.20;;;18.30;;
15155;SDS011;7678;50.058;8.306;2022-12-07T00:24:15;24.67;;;18.73;;
15155;SDS011;7678;50.058;8.306;2022-12-07T00:26:43;24.27;;;16.83;;
15155;SDS011;7678;50.058;8.306;2022-12-07T00:29:13;26.37;;;17.83;;
15155;SDS011;7678;50.058;8.306;2022-12-07T00:31:44;26.33;;;17.50;;
15155;SDS011;7678;50.058;8.306;2022-12-07T00:34:14;25.60;;;17.63;;
15155;SDS011;7678;50.058;8.306;2022-12-07T00:36:43;22.87;;;16.73;;
15155;SDS011;7678;50.058;8.306;2022-12-07T00:39:13;29.20;;;17.67;;
15155;SDS011;7678;50.058;8.306;2022-12-07T00:41:41;25.73;;;17.33;;
15155;SDS011;7678;50.058;8.306;2022-12-07T00:44:09;25.23;;;16.87;;
15155;SDS011;7678;50.058;8.306;2022-12-07T00:46:37;26.30;;;16.87;;
15155;SDS011;7678;50.058;8.306;2022-12-07T00:49:05;27.73;;;17.40;;
15155;SDS011;7678;50.058;8.306;2022-12-07T00:51:33;25.80;;;16.30;;
15155;SDS011;7678;50.058;8.306;2022-12-07T00:54:01;26.63;;;17.13;;
15155;SDS011;7678;50.058;8.306;2022-12-07T00:56:30;23.00;;;16.17;;
15155;SDS011;7678;50.058;8.306;2022-12-07T00:58:59;24.57;;;16.20;;
15155;SDS011;7678;50.058;8.306;2022-12-07T01:01:30;24.50;;;15.33;;
15155;SDS011;7678;50.058;8.306;2022-12-07T01:04:00;24.10;;;15.97;;
15155;SDS011;7678;50.058;8.306;2022-12-07T01:06:28;24.53;;;16.43;;
15155;SDS011;7678;50.058;8.306;2022-12-07T01:08:57;23.57;;;15.17;;
15155;SDS011;7678;50.058;8.306;2022-12-07T01:11:26;24.03;;;14.93;;
15155;SDS011;7678;50.058;8.306;2022-12-07T01:13:57;22.97;;;16.20;;
15155;SDS011;7678;50.058;8.306;2022-12-07T01:16:27;25.20;;;16.60;;
15155;SDS011;7678;50.058;8.306;2022-12-07T01:18:57;22.73;;;14.87;;
15155;SDS011;7678;50.058;8.306;2022-12-07T01:21:27;21.17;;;14.53;;
15155;SDS011;7678;50.058;8.306;2022-12-07T01:23:56;23.00;;;15.77;;
15155;SDS011;7678;50.058;8.306;2022-12-07T01:26:25;20.23;;;14.43;;
15155;SDS011;7678;50.058;8.306;2022-12-07T01:28:54;23.57;;;14.97;;
15155;SDS011;7678;50.058;8.306;2022-12-07T01:31:25;21.43;;;15.43;;
15155;SDS011;7678;50.058;8.306;2022-12-07T01:33:55;21.87;;;14.67;;
15155;SDS011;7678;50.058;8.306;2022-12-07T01:36:25;22.67;;;14.07;;
15155;SDS011;7678;50.058;8.306;2022-12-07T01:38:55;22.33;;;14.20;;
15155;SDS011;7678;50.058;8.306;2022-12-07T01:41:25;18.67;;;13.50;;
15155;SDS011;7678;50.058;8.306;2022-12-07T01:46:54;21.10;;;14.17;;
15155;SDS011;7678;50.058;8.306;2022-12-07T01:49:28;21.30;;;14.40;;
15155;SDS011;7678;50.058;8.306;2022-12-07T01:52:04;23.33;;;14.33;;
15155;SDS011;7678;50.058;8.306;2022-12-07T01:54:41;20.40;;;13.70;;
15155;SDS011;7678;50.058;8.306;2022-12-07T01:57:10;24.73;;;15.47;;
15155;SDS011;7678;50.058;8.306;2022-12-07T01:59:39;20.90;;;14.20;;
15155;SDS011;7678;50.058;8.306;2022-12-07T02:02:12;21.67;;;15.03;;
15155;SDS011;7678;50.058;8.306;2022-12-07T02:04:50;20.67;;;14.30;;
15155;SDS011;7678;50.058;8.306;2022-12-07T02:07:23;17.47;;;13.27;;
15155;SDS011;7678;50.058;8.306;2022-12-07T02:09:52;19.67;;;14.00;;
15155;SDS011;7678;50.058;8.306;2022-12-07T02:12:20;20.87;;;13.53;;
15155;SDS011;7678;50.058;8.306;2022-12-07T02:14:50;18.63;;;13.03;;
15155;SDS011;7678;50.058;8.306;2022-12-07T02:17:22;19.33;;;13.07;;
15155;SDS011;7678;50.058;8.306;2022-12-07T02:20:07;18.67;;;13.43;;
15155;SDS011;7678;50.058;8.306;2022-12-07T02:22:54;17.20;;;12.80;;
15155;SDS011;7678;50.058;8.306;2022-12-07T02:25:45;19.57;;;12.80;;
15155;SDS011;7678;50.058;8.306;2022-12-07T02:28:58;18.20;;;12.87;;
15155;SDS011;7678;50.058;8.306;2022-12-07T02:31:43;20.50;;;11.80;;
15155;SDS011;7678;50.058;8.306;2022-12-07T02:34:18;19.43;;;12.90;;
15155;SDS011;7678;50.058;8.306;2022-12-07T02:36:54;18.90;;;12.10;;
15155;SDS011;7678;50.058;8.306;2022-12-07T02:39:28;19.90;;;13.47;;
15155;SDS011;7678;50.058;8.306;2022-12-07T02:42:02;16.70;;;12.50;;
15155;SDS011;7678;50.058;8.306;2022-12-07T02:44:37;17.50;;;12.10;;
15155;SDS011;7678;50.058;8.306;2022-12-07T02:47:10;17.43;;;11.67;;
15155;SDS011;7678;50.058;8.306;2022-12-07T02:52:12;19.57;;;13.00;;
15155;SDS011;7678;50.058;8.306;2022-12-07T02:54:40;15.60;;;11.63;;
15155;SDS011;7678;50.058;8.306;2022-12-07T02:57:14;18.30;;;12.07;;
15155;SDS011;7678;50.058;8.306;2022-12-07T02:59:57;16.67;;;11.33;;
15155;SDS011;7678;50.058;8.306;2022-12-07T03:02:35;15.10;;;11.73;;
15155;SDS011;7678;50.058;8.306;2022-12-07T03:05:13;16.70;;;11.97;;
15155;SDS011;7678;50.058;8.306;2022-12-07T03:07:50;17.50;;;12.17;;
15155;SDS011;7678;50.058;8.306;2022-12-07T03:10:27;18.93;;;11.90;;
15155;SDS011;7678;50.058;8.306;2022-12-07T03:13:02;17.90;;;12.43;;
15155;SDS011;7678;50.058;8.306;2022-12-07T03:15:38;19.60;;;12.60;;
15155;SDS011;7678;50.058;8.306;2022-12-07T03:18:11;16.43;;;12.00;;
15155;SDS011;7678;50.058;8.306;2022-12-07T03:20:44;16.03;;;11.80;;
15155;SDS011;7678;50.058;8.306;2022-12-07T03:23:15;18.83;;;11.53;;
15155;SDS011;7678;50.058;8.306;2022-12-07T03:25:46;16.87;;;12.03;;
15155;SDS011;7678;50.058;8.306;2022-12-07T03:28:24;17.77;;;11.60;;
15155;SDS011;7678;50.058;8.306;2022-12-07T03:31:00;16.80;;;12.30;;
15155;SDS011;7678;50.058;8.306;2022-12-07T03:33:32;17.67;;;11.53;;
15155;SDS011;7678;50.058;8.306;2022-12-07T03:36:06;16.47;;;11.73;;
15155;SDS011;7678;50.058;8.306;2022-12-07T03:38:40;17.57;;;12.57;;
15155;SDS011;7678;50.058;8.306;2022-12-07T03:41:14;14.77;;;11.03;;
15155;SDS011;7678;50.058;8.306;2022-12-07T03:43:45;14.97;;;10.90;;
15155;SDS011;7678;50.058;8.306;2022-12-07T03:46:17;16.47;;;11.37;;
15155;SDS011;7678;50.058;8.306;2022-12-07T03:48:53;16.60;;;11.90;;
15155;SDS011;7678;50.058;8.306;2022-12-07T03:51:25;16.60;;;12.00;;
15155;SDS011;7678;50.058;8.306;2022-12-07T03:53:59;16.13;;;10.97;;
15155;SDS011;7678;50.058;8.306;2022-12-07T03:56:33;15.77;;;11.47;;
15155;SDS011;7678;50.058;8.306;2022-12-07T03:59:01;13.40;;;10.60;;
15155;SDS011;7678;50.058;8.306;2022-12-07T04:01:31;16.57;;;11.93;;
15155;SDS011;7678;50.058;8.306;2022-12-07T04:03:59;13.83;;;10.50;;
15155;SDS011;7678;50.058;8.306;2022-12-07T04:06:29;16.40;;;11.47;;
15155;SDS011;7678;50.058;8.306;2022-12-07T04:08:57;21.57;;;12.67;;
15155;SDS011;7678;50.058;8.306;2022-12-07T04:11:25;18.03;;;11.43;;
15155;SDS011;7678;50.058;8.306;2022-12-07T04:13:53;18.30;;;11.57;;
15155;SDS011;7678;50.058;8.306;2022-12-07T04:16:40;17.87;;;11.27;;
15155;SDS011;7678;50.058;8.306;2022-12-07T04:19:10;16.37;;;11.20;;
15155;SDS011;7678;50.058;8.306;2022-12-07T04:21:38;18.43;;;11.43;;
15155;SDS011;7678;50.058;8.306;2022-12-07T04:24:07;16.07;;;11.27;;
15155;SDS011;7678;50.058;8.306;2022-12-07T04:26:35;15.13;;;10.50;;
15155;SDS011;7678;50.058;8.306;2022-12-07T04:29:03;14.40;;;10.77;;
15155;SDS011;7678;50.058;8.306;2022-12-07T04:31:33;14.47;;;10.87;;
15155;SDS011;7678;50.058;8.306;2022-12-07T04:34:03;13.93;;;10.40;;
15155;SDS011;7678;50.058;8.306;2022-12-07T04:36:32;17.13;;;11.13;;
15155;SDS011;7678;50.058;8.306;2022-12-07T04:39:00;15.93;;;10.40;;
15155;SDS011;7678;50.058;8.306;2022-12-07T04:41:30;14.33;;;10.83;;
15155;SDS011;7678;50.058;8.306;2022-12-07T04:43:59;14.23;;;11.00;;
15155;SDS011;7678;50.058;8.306;2022-12-07T04:46:29;15.23;;;10.40;;
15155;SDS011;7678;50.058;8.306;2022-12-07T04:48:58;13.73;;;10.47;;
15155;SDS011;7678;50.058;8.306;2022-12-07T04:51:28;17.03;;;10.73;;
15155;SDS011;7678;50.058;8.306;2022-12-07T04:53:56;14.43;;;10.33;;
15155;SDS011;7678;50.058;8.306;2022-12-07T04:56:24;13.93;;;10.43;;
15155;SDS011;7678;50.058;8.306;2022-12-07T04:58:53;15.17;;;10.80;;
15155;SDS011;7678;50.058;8.306;2022-12-07T05:01:22;15.33;;;10.90;;
15155;SDS011;7678;50.058;8.306;2022-12-07T05:03:51;15.77;;;11.23;;
15155;SDS011;7678;50.058;8.306;2022-12-07T05:06:20;16.70;;;12.33;;
15155;SDS011;7678;50.058;8.306;2022-12-07T05:08:49;17.53;;;12.27;;
15155;SDS011;7678;50.058;8.306;2022-12-07T05:11:17;14.03;;;11.70;;
15155;SDS011;7678;50.058;8.306;2022-12-07T05:13:59;16.43;;;12.20;;
15155;SDS011;7678;50.058;8.306;2022-12-07T05:16:27;17.20;;;12.37;;
15155;SDS011;7678;50.058;8.306;2022-12-07T05:18:55;17.63;;;12.80;;
15155;SDS011;7678;50.058;8.306;2022-12-07T05:21:23;19.17;;;13.70;;
15155;SDS011;7678;50.058;8.306;2022-12-07T05:23:56;17.73;;;12.63;;
15155;SDS011;7678;50.058;8.306;2022-12-07T05:26:24;17.83;;;13.20;;
15155;SDS011;7678;50.058;8.306;2022-12-07T05:28:52;17.63;;;12.57;;
15155;SDS011;7678;50.058;8.306;2022-12-07T05:31:21;17.37;;;13.33;;
15155;SDS011;7678;50.058;8.306;2022-12-07T05:33:50;23.60;;;14.03;;
15155;SDS011;7678;50.058;8.306;2022-12-07T05:36:18;19.93;;;13.33;;
15155;SDS011;7678;50.058;8.306;2022-12-07T05:38:46;18.43;;;12.90;;
15155;SDS011;7678;50.058;8.306;2022-12-07T05:41:16;21.40;;;13.13;;
15155;SDS011;7678;50.058;8.306;2022-12-07T05:44:03;17.00;;;13.10;;
15155;SDS011;7678;50.058;8.306;2022-12-07T05:46:31;16.47;;;12.70;;
15155;SDS011;7678;50.058;8.306;2022-12-07T05:48:59;19.80;;;13.90;;
15155;SDS011;7678;50.058;8.306;2022-12-07T05:51:28;14.73;;;12.13;;
15155;SDS011;7678;50.058;8.306;2022-12-07T05:53:56;19.07;;;13.07;;
15155;SDS011;7678;50.058;8.306;2022-12-07T05:56:25;18.63;;;13.37;;
15155;SDS011;7678;50.058;8.306;2022-12-07T05:58:53;16.73;;;13.17;;
15155;SDS011;7678;50.058;8.306;2022-12-07T06:01:39;19.60;;;13.67;;
15155;SDS011;7678;50.058;8.306;2022-12-07T06:04:07;19.30;;;13.83;;
15155;SDS011;7678;50.058;8.306;2022-12-07T06:06:35;17.50;;;13.63;;
15155;SDS011;7678;50.058;8.306;2022-12-07T06:09:04;20.73;;;14.07;;
15155;SDS011;7678;50.058;8.306;2022-12-07T06:11:35;19.03;;;14.03;;
15155;SDS011;7678;50.058;8.306;2022-12-07T06:14:20;20.03;;;14.20;;
15155;SDS011;7678;50.058;8.306;2022-12-07T06:16:48;18.10;;;14.17;;
15155;SDS011;7678;50.058;8.306;2022-12-07T06:19:16;17.83;;;14.43;;
15155;SDS011;7678;50.058;8.306;2022-12-07T06:21:44;18.17;;;14.07;;
15155;SDS011;7678;50.058;8.306;2022-12-07T06:24:13;18.63;;;14.30;;
15155;SDS011;7678;50.058;8.306;2022-12-07T06:26:43;17.33;;;13.53;;
15155;SDS011;7678;50.058;8.306;2022-12-07T06:29:12;19.13;;;14.20;;
15155;SDS011;7678;50.058;8.306;2022-12-07T06:31:40;16.67;;;13.23;;
15155;SDS011;7678;50.058;8.306;2022-12-07T06:34:09;19.93;;;13.80;;
15155;SDS011;7678;50.058;8.306;2022-12-07T06:36:39;18.40;;;13.90;;
15155;SDS011;7678;50.058;8.306;2022-12-07T06:39:07;23.10;;;14.97;;
15155;SDS011;7678;50.058;8.306;2022-12-07T06:41:36;21.73;;;13.97;;
15155;SDS011;7678;50.058;8.306;2022-12-07T06:44:05;16.33;;;13.40;;
15155;SDS011;7678;50.058;8.306;2022-12-07T06:46:34;17.13;;;13.77;;
15155;SDS011;7678;50.058;8.306;2022-12-07T06:49:02;17.07;;;13.80;;
15155;SDS011;7678;50.058;8.306;2022-12-07T06:51:31;21.10;;;14.10;;
15155;SDS011;7678;50.058;8.306;2022-12-07T06:53:59;20.07;;;14.03;;
15155;SDS011;7678;50.058;8.306;2022-12-07T06:56:27;16.77;;;13.73;;
15155;SDS011;7678;50.058;8.306;2022-12-07T06:58:55;19.20;;;14.23;;
15155;SDS011;7678;50.058;8.306;2022-12-07T07:01:24;21.77;;;14.20;;
15155;SDS011;7678;50.058;8.306;2022-12-07T07:03:53;20.13;;;15.27;;
15155;SDS011;7678;50.058;8.306;2022-12-07T07:06:21;21.07;;;14.87;;
15155;SDS011;7678;50.058;8.306;2022-12-07T07:08:49;19.30;;;14.63;;
15155;SDS011;7678;50.058;8.306;2022-12-07T07:11:17;16.70;;;13.30;;
15155;SDS011;7678;50.058;8.306;2022-12-07T07:13:45;18.17;;;13.23;;
15155;SDS011;7678;50.058;8.306;2022-12-07T07:16:13;16.60;;;12.23;;
15155;SDS011;7678;50.058;8.306;2022-12-07T07:18:43;15.80;;;11.07;;
15155;SDS011;7678;50.058;8.306;2022-12-07T07:21:11;15.30;;;11.87;;
15155;SDS011;7678;50.058;8.306;2022-12-07T07:23:39;16.80;;;11.10;;
15155;SDS011;7678;50.058;8.306;2022-12-07T07:26:07;14.47;;;11.57;;
15155;SDS011;7678;50.058;8.306;2022-12-07T07:28:35;16.73;;;12.03;;
15155;SDS011;7678;50.058;8.306;2022-12-07T07:31:03;17.27;;;12.23;;
15155;SDS011;7678;50.058;8.306;2022-12-07T07:33:35;13.90;;;11.60;;
15155;SDS011;7678;50.058;8.306;2022-12-07T07:36:05;14.43;;;10.97;;
15155;SDS011;7678;50.058;8.306;2022-12-07T07:38:34;14.90;;;11.47;;
15155;SDS011;7678;50.058;8.306;2022-12-07T07:41:02;16.53;;;12.33;;
15155;SDS011;7678;50.058;8.306;2022-12-07T07:43:32;16.73;;;12.47;;
15155;SDS011;7678;50.058;8.306;2022-12-07T07:46:00;16.47;;;12.13;;
15155;SDS011;7678;50.058;8.306;2022-12-07T07:48:28;18.47;;;13.87;;
15155;SDS011;7678;50.058;8.306;2022-12-07T07:50:56;19.50;;;13.60;;
15155;SDS011;7678;50.058;8.306;2022-12-07T07:53:25;18.97;;;13.93;;
15155;SDS011;7678;50.058;8.306;2022-12-07T07:55:54;17.97;;;13.37;;
15155;SDS011;7678;50.058;8.306;2022-12-07T07:58:22;18.20;;;13.83;;
15155;SDS011;7678;50.058;8.306;2022-12-07T08:00:50;20.70;;;13.63;;
15155;SDS011;7678;50.058;8.306;2022-12-07T08:03:19;22.33;;;14.33;;
15155;SDS011;7678;50.058;8.306;2022-12-07T08:05:47;18.47;;;13.33;;
15155;SDS011;7678;50.058;8.306;2022-12-07T08:08:15;24.33;;;14.00;;
15155;SDS011;7678;50.058;8.306;2022-12-07T08:13:27;16.57;;;13.23;;
15155;SDS011;7678;50.058;8.306;2022-12-07T08:15:57;15.70;;;12.37;;
15155;SDS011;7678;50.058;8.306;2022-12-07T08:18:25;18.00;;;12.73;;
15155;SDS011;7678;50.058;8.306;2022-12-07T08:20:58;15.57;;;12.37;;
15155;SDS011;7678;50.058;8.306;2022-12-07T08:23:27;15.53;;;12.23;;
15155;SDS011;7678;50.058;8.306;2022-12-07T08:26:07;16.70;;;12.23;;
15155;SDS011;7678;50.058;8.306;2022-12-07T08:28:36;15.03;;;12.30;;
15155;SDS011;7678;50.058;8.306;2022-12-07T08:31:05;17.60;;;12.70;;
15155;SDS011;7678;50.058;8.306;2022-12-07T08:33:41;17.20;;;11.23;;
15155;SDS011;7678;50.058;8.306;2022-12-07T08:36:09;20.13;;;12.43;;
15155;SDS011;7678;50.058;8.306;2022-12-07T08:38:39;14.93;;;11.33;;
15155;SDS011;7678;50.058;8.306;2022-12-07T08:41:30;19.67;;;13.40;;
15155;SDS011;7678;50.058;8.306;2022-12-07T08:43:58;17.67;;;13.53;;
15155;SDS011;7678;50.058;8.306;2022-12-07T08:46:26;15.87;;;12.47;;
15155;SDS011;7678;50.058;8.306;2022-12-07T08:49:01;17.07;;;12.90;;
15155;SDS011;7678;50.058;8.306;2022-12-07T08:51:32;18.67;;;12.40;;
15155;SDS011;7678;50.058;8.306;2022-12-07T08:54:00;15.37;;;11.50;;
15155;SDS011;7678;50.058;8.306;2022-12-07T08:56:32;15.10;;;11.30;;
15155;SDS011;7678;50.058;8.306;2022-12-07T08:59:17;14.47;;;12.00;;
15155;SDS011;7678;50.058;8.306;2022-12-07T09:01:49;15.63;;;11.60;;
15155;SDS011;7678;50.058;8.306;2022-12-07T09:04:19;14.67;;;11.83;;
15155;SDS011;7678;50.058;8.306;2022-12-07T09:06:50;14.00;;;11.10;;
15155;SDS011;7678;50.058;8.306;2022-12-07T09:09:19;12.67;;;10.17;;
15155;SDS011;7678;50.058;8.306;2022-12-07T09:11:47;17.03;;;11.40;;
15155;SDS011;7678;50.058;8.306;2022-12-07T09:14:18;13.27;;;9.57;;
15155;SDS011;7678;50.058;8.306;2022-12-07T09:16:46;11.27;;;9.67;;
15155;SDS011;7678;50.058;8.306;2022-12-07T09:19:16;15.23;;;9.93;;
15155;SDS011;7678;50.058;8.306;2022-12-07T09:21:47;10.30;;;8.83;;
15155;SDS011;7678;50.058;8.306;2022-12-07T09:24:15;11.23;;;8.47;;
15155;SDS011;7678;50.058;8.306;2022-12-07T09:26:43;11.07;;;8.10;;
15155;SDS011;7678;50.058;8.306;2022-12-07T09:29:12;9.83;;;8.33;;
15155;SDS011;7678;50.058;8.306;2022-12-07T09:31:41;11.73;;;8.43;;
15155;SDS011;7678;50.058;8.306;2022-12-07T09:34:09;12.80;;;8.30;;
15155;SDS011;7678;50.058;8.306;2022-12-07T09:36:37;10.00;;;8.00;;
15155;SDS011;7678;50.058;8.306;2022-12-07T09:39:05;8.30;;;6.93;;
15155;SDS011;7678;50.058;8.306;2022-12-07T09:41:33;8.10;;;6.90;;
15155;SDS011;7678;50.058;8.306;2022-12-07T09:44:06;11.70;;;7.43;;
15155;SDS011;7678;50.058;8.306;2022-12-07T09:46:39;9.53;;;7.07;;
15155;SDS011;7678;50.058;8.306;2022-12-07T09:49:10;8.70;;;6.00;;
15155;SDS011;7678;50.058;8.306;2022-12-07T09:51:42;8.57;;;5.97;;
15155;SDS011;7678;50.058;8.306;2022-12-07T09:54:13;9.57;;;6.43;;
15155;SDS011;7678;50.058;8.306;2022-12-07T09:59:16;7.87;;;6.43;;
15155;SDS011;7678;50.058;8.306;2022-12-07T10:01:47;9.47;;;6.70;;
15155;SDS011;7678;50.058;8.306;2022-12-07T10:04:18;6.80;;;5.40;;
15155;SDS011;7678;50.058;8.306;2022-12-07T10:06:48;7.07;;;5.67;;
15155;SDS011;7678;50.058;8.306;2022-12-07T10:09:18;7.73;;;5.57;;
15155;SDS011;7678;50.058;8.306;2022-12-07T10:12:03;7.47;;;5.00;;
15155;SDS011;7678;50.058;8.306;2022-12-07T10:14:34;6.60;;;4.60;;
15155;SDS011;7678;50.058;8.306;2022-12-07T10:17:32;6.73;;;4.43;;
15155;SDS011;7678;50.058;8.306;2022-12-07T10:22:56;7.83;;;4.53;;
15155;SDS011;7678;50.058;8.306;2022-12-07T10:25:27;7.37;;;4.73;;
15155;SDS011;7678;50.058;8.306;2022-12-07T10:27:58;8.53;;;5.17;;
15155;SDS011;7678;50.058;8.306;2022-12-07T10:30:29;8.33;;;4.30;;
15155;SDS011;7678;50.058;8.306;2022-12-07T10:33:00;6.33;;;3.97;;
15155;SDS011;7678;50.058;8.306;2022-12-07T10:35:28;7.97;;;4.20;;
15155;SDS011;7678;50.058;8.306;2022-12-07T10:37:58;7.37;;;4.17;;
15155;SDS011;7678;50.058;8.306;2022-12-07T10:40:28;10.07;;;4.17;;
15155;SDS011;7678;50.058;8.306;2022-12-07T10:43:08;6.07;;;3.80;;
15155;SDS011;7678;50.058;8.306;2022-12-07T10:45:59;5.80;;;3.40;;
15155;SDS011;7678;50.058;8.306;2022-12-07T10:48:50;5.03;;;2.90;;
15155;SDS011;7678;50.058;8.306;2022-12-07T10:51:27;6.10;;;3.63;;
15155;SDS011;7678;50.058;8.306;2022-12-07T10:54:09;4.60;;;2.80;;
15155;SDS011;7678;50.058;8.306;2022-12-07T10:59:41;7.97;;;4.27;;
15155;SDS011;7678;50.058;8.306;2022-12-07T11:02:26;5.53;;;2.60;;
15155;SDS011;7678;50.058;8.306;2022-12-07T11:05:26;2.83;;;2.10;;
15155;SDS011;7678;50.058;8.306;2022-12-07T11:08:00;7.57;;;2.87;;
15155;SDS011;7678;50.058;8.306;2022-12-07T11:10:39;5.57;;;3.20;;
15155;SDS011;7678;50.058;8.306;2022-12-07T11:13:15;4.20;;;2.53;;
15155;SDS011;7678;50.058;8.306;2022-12-07T11:16:03;5.77;;;2.23;;
15155;SDS011;7678;50.058;8.306;2022-12-07T11:18:48;4.57;;;2.13;;
15155;SDS011;7678;50.058;8.306;2022-12-07T11:21:37;6.20;;;2.10;;
15155;SDS011;7678;50.058;8.306;2022-12-07T11:24:14;5.07;;;2.23;;
15155;SDS011;7678;50.058;8.306;2022-12-07T11:26:50;6.70;;;2.17;;
15155;SDS011;7678;50.058;8.306;2022-12-07T11:29:33;7.03;;;2.50;;
15155;SDS011;7678;50.058;8.306;2022-12-07T11:32:21;5.20;;;2.70;;
15155;SDS011;7678;50.058;8.306;2022-12-07T11:35:02;7.00;;;2.17;;
15155;SDS011;7678;50.058;8.306;2022-12-07T11:37:37;4.93;;;2.40;;
15155;SDS011;7678;50.058;8.306;2022-12-07T11:40:13;7.47;;;2.10;;
15155;SDS011;7678;50.058;8.306;2022-12-07T11:42:47;4.50;;;2.17;;
15155;SDS011;7678;50.058;8.306;2022-12-07T11:45:20;4.37;;;2.17;;
15155;SDS011;7678;50.058;8.306;2022-12-07T11:47:51;3.50;;;2.10;;
15155;SDS011;7678;50.058;8.306;2022-12-07T11:50:25;4.60;;;2.00;;
15155;SDS011;7678;50.058;8.306;2022-12-07T11:52:59;5.90;;;2.30;;
15155;SDS011;7678;50.058;8.306;2022-12-07T11:55:32;3.57;;;2.00;;
15155;SDS011;7678;50.058;8.306;2022-12-07T11:58:13;3.00;;;2.30;;
15155;SDS011;7678;50.058;8.306;2022-12-07T12:00:48;2.67;;;2.00;;
15155;SDS011;7678;50.058;8.306;2022-12-07T12:03:20;9.50;;;2.90;;
15155;SDS011;7678;50.058;8.306;2022-12-07T12:05:56;5.87;;;2.43;;
15155;SDS011;7678;50.058;8.306;2022-12-07T12:08:27;3.60;;;2.20;;
15155;SDS011;7678;50.058;8.306;2022-12-07T12:11:23;8.13;;;3.40;;
15155;SDS011;7678;50.058;8.306;2022-12-07T12:14:17;4.83;;;3.10;;
15155;SDS011;7678;50.058;8.306;2022-12-07T12:17:16;5.30;;;2.50;;
15155;SDS011;7678;50.058;8.306;2022-12-07T12:19:59;18.20;;;8.93;;
15155;SDS011;7678;50.058;8.306;2022-12-07T12:22:33;27.67;;;12.40;;
15155;SDS011;7678;50.058;8.306;2022-12-07T12:25:06;12.93;;;6.77;;
15155;SDS011;7678;50.058;8.306;2022-12-07T12:27:42;14.07;;;5.93;;
15155;SDS011;7678;50.058;8.306;2022-12-07T12:30:24;8.33;;;4.40;;
15155;SDS011;7678;50.058;8.306;2022-12-07T12:33:02;17.90;;;8.10;;
15155;SDS011;7678;50.058;8.306;2022-12-07T12:35:33;6.67;;;3.40;;
15155;SDS011;7678;50.058;8.306;2022-12-07T12:41:06;6.87;;;3.50;;
15155;SDS011;7678;50.058;8.306;2022-12-07T12:48:27;5.73;;;2.10;;
15155;SDS011;7678;50.058;8.306;2022-12-07T12:54:52;8.00;;;3.47;;
15155;SDS011;7678;50.058;8.306;2022-12-07T12:57:30;6.77;;;2.90;;
15155;SDS011;7678;50.058;8.306;2022-12-07T13:00:14;4.83;;;2.27;;
15155;SDS011;7678;50.058;8.306;2022-12-07T13:02:48;5.27;;;2.13;;
15155;SDS011;7678;50.058;8.306;2022-12-07T13:05:20;5.00;;;2.67;;
15155;SDS011;7678;50.058;8.306;2022-12-07T13:07:52;6.43;;;3.60;;
15155;SDS011;7678;50.058;8.306;2022-12-07T13:10:38;5.77;;;2.20;;
15155;SDS011;7678;50.058;8.306;2022-12-07T13:23:58;3.60;;;2.20;;
15155;SDS011;7678;50.058;8.306;2022-12-07T13:26:35;6.97;;;2.50;;
15155;SDS011;7678;50.058;8.306;2022-12-07T13:29:09;4.87;;;2.30;;
15155;SDS011;7678;50.058;8.306;2022-12-07T13:31:39;5.37;;;2.30;;
15155;SDS011;7678;50.058;8.306;2022-12-07T13:34:28;5.20;;;2.27;;
15155;SDS011;7678;50.058;8.306;2022-12-07T13:36:58;3.97;;;2.33;;
15155;SDS011;7678;50.058;8.306;2022-12-07T13:39:28;9.17;;;3.13;;
15155;SDS011;7678;50.058;8.306;2022-12-07T13:42:15;7.20;;;3.20;;
15155;SDS011;7678;50.058;8.306;2022-12-07T13:45:37;3.43;;;2.20;;
15155;SDS011;7678;50.058;8.306;2022-12-07T13:48:20;7.53;;;2.63;;
15155;SDS011;7678;50.058;8.306;2022-12-07T13:51:16;4.93;;;2.13;;
15155;SDS011;7678;50.058;8.306;2022-12-07T13:54:57;3.70;;;2.20;;
15155;SDS011;7678;50.058;8.306;2022-12-07T14:00:39;7.13;;;2.13;;
15155;SDS011;7678;50.058;8.306;2022-12-07T14:03:48;4.73;;;2.10;;
15155;SDS011;7678;50.058;8.306;2022-12-07T14:06:18;4.93;;;2.17;;
15155;SDS011;7678;50.058;8.306;2022-12-07T14:11:59;4.50;;;2.87;;
15155;SDS011;7678;50.058;8.306;2022-12-07T14:15:19;4.10;;;1.80;;
15155;SDS011;7678;50.058;8.306;2022-12-07T14:17:52;3.00;;;2.27;;
15155;SDS011;7678;50.058;8.306;2022-12-07T14:20:28;5.47;;;2.40;;
15155;SDS011;7678;50.058;8.306;2022-12-07T14:23:02;5.80;;;2.50;;
15155;SDS011;7678;50.058;8.306;2022-12-07T14:25:44;3.37;;;1.80;;
15155;SDS011;7678;50.058;8.306;2022-12-07T14:28:25;4.17;;;1.87;;
15155;SDS011;7678;50.058;8.306;2022-12-07T14:30:53;9.07;;;2.07;;
15155;SDS011;7678;50.058;8.306;2022-12-07T14:33:51;7.33;;;2.13;;
15155;SDS011;7678;50.058;8.306;2022-12-07T14:37:06;8.63;;;2.40;;
15155;SDS011;7678;50.058;8.306;2022-12-07T14:39:35;6.07;;;2.37;;
15155;SDS011;7678;50.058;8.306;2022-12-07T14:42:22;6.87;;;2.20;;
15155;SDS011;7678;50.058;8.306;2022-12-07T14:45:23;6.63;;;2.00;;
15155;SDS011;7678;50.058;8.306;2022-12-07T14:48:35;5.03;;;2.37;;
15155;SDS011;7678;50.058;8.306;2022-12-07T14:55:02;6.10;;;2.00;;
15155;SDS011;7678;50.058;8.306;2022-12-07T14:57:31;4.13;;;2.03;;
15155;SDS011;7678;50.058;8.306;2022-12-07T15:00:01;5.77;;;2.13;;
15155;SDS011;7678;50.058;8.306;2022-12-07T15:02:29;2.73;;;1.70;;
15155;SDS011;7678;50.058;8.306;2022-12-07T15:04:59;3.63;;;1.90;;
15155;SDS011;7678;50.058;8.306;2022-12-07T15:07:28;5.77;;;2.10;;
15155;SDS011;7678;50.058;8.306;2022-12-07T15:09:56;3.27;;;2.27;;
15155;SDS011;7678;50.058;8.306;2022-12-07T15:12:24;4.57;;;2.00;;
15155;SDS011;7678;50.058;8.306;2022-12-07T15:14:53;7.00;;;2.33;;
15155;SDS011;7678;50.058;8.306;2022-12-07T15:17:21;5.13;;;2.40;;
15155;SDS011;7678;50.058;8.306;2022-12-07T15:19:59;10.40;;;6.30;;
15155;SDS011;7678;50.058;8.306;2022-12-07T15:22:29;23.30;;;10.33;;
15155;SDS011;7678;50.058;8.306;2022-12-07T15:25:34;6.30;;;3.50;;
15155;SDS011;7678;50.058;8.306;2022-12-07T15:28:02;6.00;;;2.63;;
15155;SDS011;7678;50.058;8.306;2022-12-07T15:30:30;7.73;;;3.70;;
15155;SDS011;7678;50.058;8.306;2022-12-07T15:32:58;6.43;;;3.37;;
15155;SDS011;7678;50.058;8.306;2022-12-07T15:35:43;7.87;;;3.20;;
15155;SDS011;7678;50.058;8.306;2022-12-07T15:38:26;3.73;;;2.87;;
15155;SDS011;7678;50.058;8.306;2022-12-07T15:41:16;6.50;;;2.87;;
15155;SDS011;7678;50.058;8.306;2022-12-07T15:43:45;7.70;;;3.23;;
15155;SDS011;7678;50.058;8.306;2022-12-07T15:46:30;4.43;;;3.13;;
15155;SDS011;7678;50.058;8.306;2022-12-07T15:48:58;5.60;;;3.33;;
15155;SDS011;7678;50.058;8.306;2022-12-07T15:51:28;8.73;;;4.70;;
15155;SDS011;7678;50.058;8.306;2022-12-07T15:53:58;7.30;;;4.03;;
15155;SDS011;7678;50.058;8.306;2022-12-07T15:56:56;5.60;;;3.30;;
15155;SDS011;7678;50.058;8.306;2022-12-07T15:59:25;6.80;;;3.40;;
15155;SDS011;7678;50.058;8.306;2022-12-07T16:01:55;5.90;;;2.93;;
15155;SDS011;7678;50.058;8.306;2022-12-07T16:04:26;7.97;;;3.40;;
15155;SDS011;7678;50.058;8.306;2022-12-07T16:06:56;7.70;;;3.10;;
15155;SDS011;7678;50.058;8.306;2022-12-07T16:09:24;5.17;;;3.23;;
15155;SDS011;7678;50.058;8.306;2022-12-07T16:11:52;6.67;;;3.90;;
15155;SDS011;7678;50.058;8.306;2022-12-07T16:14:20;8.23;;;4.37;;